sensor_id;sensor_type;location;lat;lon;timestamp;P1;durP1;ratioP1;P2;durP2;ratioP2
60612;SDS011;46443;59.792;17.626;2023-07-16T00:02:10;5.77;;;2.63;;
60612;SDS011;46443;59.792;17.626;2023-07-16T00:04:36;4.57;;;2.43;;
60612;SDS011;46443;59.792;17.626;2023-07-16T00:07:02;4.50;;;2.27;;
60612;SDS011;46443;59.792;17.626;2023-07-16T00:09:28;4.03;;;2.23;;
60612;SDS011;46443;59.792;17.626;2023-07-16T00:11:55;4.10;;;2.60;;
60612;SDS011;46443;59.792;17.626;2023-07-16T00:14:21;5.40;;;2.53;;
60612;SDS011;46443;59.792;17.626;2023-07-16T00:16:47;4.40;;;2.40;;
60612;SDS011;46443;59.792;17.626;2023-07-16T00:19:14;4.87;;;2.60;;
60612;SDS011;46443;59.792;17.626;2023-07-16T00:21:40;5.10;;;2.40;;
60612;SDS011;46443;59.792;17.626;2023-07-16T00:24:06;3.67;;;2.23;;
60612;SDS011;46443;59.792;17.626;2023-07-16T00:26:32;4.67;;;2.50;;
60612;SDS011;46443;59.792;17.626;2023-07-16T00:28:58;3.47;;;2.40;;
60612;SDS011;46443;59.792;17.626;2023-07-16T00:31:25;4.83;;;2.63;;
60612;SDS011;46443;59.792;17.626;2023-07-16T00:33:51;4.97;;;2.37;;
60612;SDS011;46443;59.792;17.626;2023-07-16T00:36:17;4.27;;;2.63;;
60612;SDS011;46443;59.792;17.626;2023-07-16T00:38:43;5.57;;;2.50;;
60612;SDS011;46443;59.792;17.626;2023-07-16T00:41:11;5.20;;;2.50;;
60612;SDS011;46443;59.792;17.626;2023-07-16T00:43:37;5.33;;;2.50;;
60612;SDS011;46443;59.792;17.626;2023-07-16T00:46:03;3.37;;;2.33;;
60612;SDS011;46443;59.792;17.626;2023-07-16T00:48:29;4.93;;;2.30;;
60612;SDS011;46443;59.792;17.626;2023-07-16T00:50:55;3.80;;;2.27;;
60612;SDS011;46443;59.792;17.626;2023-07-16T00:53:21;3.90;;;2.40;;
60612;SDS011;46443;59.792;17.626;2023-07-16T00:55:47;3.50;;;2.10;;
60612;SDS011;46443;59.792;17.626;2023-07-16T00:58:13;3.60;;;2.00;;
60612;SDS011;46443;59.792;17.626;2023-07-16T01:00:40;3.27;;;2.30;;
60612;SDS011;46443;59.792;17.626;2023-07-16T01:03:07;4.13;;;2.30;;
60612;SDS011;46443;59.792;17.626;2023-07-16T01:05:52;4.70;;;2.37;;
60612;SDS011;46443;59.792;17.626;2023-07-16T01:08:22;4.90;;;2.33;;
60612;SDS011;46443;59.792;17.626;2023-07-16T01:10:52;4.50;;;2.20;;
60612;SDS011;46443;59.792;17.626;2023-07-16T01:13:19;5.30;;;2.30;;
60612;SDS011;46443;59.792;17.626;2023-07-16T01:15:45;3.37;;;2.17;;
60612;SDS011;46443;59.792;17.626;2023-07-16T01:18:11;5.20;;;2.23;;
60612;SDS011;46443;59.792;17.626;2023-07-16T01:20:37;4.10;;;2.10;;
60612;SDS011;46443;59.792;17.626;2023-07-16T01:25:55;3.43;;;2.00;;
60612;SDS011;46443;59.792;17.626;2023-07-16T01:31:13;3.60;;;2.27;;
60612;SDS011;46443;59.792;17.626;2023-07-16T01:33:39;3.60;;;2.20;;
60612;SDS011;46443;59.792;17.626;2023-07-16T01:36:06;4.17;;;2.20;;
60612;SDS011;46443;59.792;17.626;2023-07-16T01:38:33;3.70;;;2.27;;
60612;SDS011;46443;59.792;17.626;2023-07-16T01:41:00;3.87;;;2.50;;
60612;SDS011;46443;59.792;17.626;2023-07-16T01:43:26;3.77;;;2.30;;
60612;SDS011;46443;59.792;17.626;2023-07-16T01:45:52;3.50;;;2.27;;
60612;SDS011;46443;59.792;17.626;2023-07-16T01:48:29;3.87;;;2.43;;
60612;SDS011;46443;59.792;17.626;2023-07-16T01:50:55;6.00;;;2.40;;
60612;SDS011;46443;59.792;17.626;2023-07-16T01:53:21;4.40;;;2.83;;
60612;SDS011;46443;59.792;17.626;2023-07-16T01:55:47;4.97;;;2.47;;
60612;SDS011;46443;59.792;17.626;2023-07-16T01:58:13;4.30;;;2.40;;
60612;SDS011;46443;59.792;17.626;2023-07-16T02:00:39;5.67;;;2.37;;
60612;SDS011;46443;59.792;17.626;2023-07-16T02:03:05;4.17;;;2.20;;
60612;SDS011;46443;59.792;17.626;2023-07-16T02:05:31;3.53;;;2.27;;
60612;SDS011;46443;59.792;17.626;2023-07-16T02:07:57;5.00;;;2.60;;
60612;SDS011;46443;59.792;17.626;2023-07-16T02:10:23;4.17;;;2.50;;
60612;SDS011;46443;59.792;17.626;2023-07-16T02:12:50;4.30;;;2.47;;
60612;SDS011;46443;59.792;17.626;2023-07-16T02:15:16;4.23;;;2.30;;
60612;SDS011;46443;59.792;17.626;2023-07-16T02:17:43;4.30;;;2.53;;
60612;SDS011;46443;59.792;17.626;2023-07-16T02:20:09;5.37;;;2.40;;
60612;SDS011;46443;59.792;17.626;2023-07-16T02:22:35;3.70;;;2.20;;
60612;SDS011;46443;59.792;17.626;2023-07-16T02:25:02;5.57;;;2.33;;
60612;SDS011;46443;59.792;17.626;2023-07-16T02:27:28;4.47;;;2.60;;
60612;SDS011;46443;59.792;17.626;2023-07-16T02:29:54;4.17;;;2.53;;
60612;SDS011;46443;59.792;17.626;2023-07-16T02:32:20;5.40;;;2.70;;
60612;SDS011;46443;59.792;17.626;2023-07-16T02:34:46;4.30;;;2.87;;
60612;SDS011;46443;59.792;17.626;2023-07-16T02:37:12;4.67;;;2.30;;
60612;SDS011;46443;59.792;17.626;2023-07-16T02:39:42;4.43;;;2.30;;
60612;SDS011;46443;59.792;17.626;2023-07-16T02:42:08;4.32;;;2.47;;
60612;SDS011;46443;59.792;17.626;2023-07-16T02:44:34;4.00;;;2.60;;
60612;SDS011;46443;59.792;17.626;2023-07-16T02:47:03;4.13;;;2.83;;
60612;SDS011;46443;59.792;17.626;2023-07-16T02:49:29;3.93;;;2.40;;
60612;SDS011;46443;59.792;17.626;2023-07-16T02:51:55;4.77;;;2.50;;
60612;SDS011;46443;59.792;17.626;2023-07-16T02:54:21;4.83;;;2.63;;
60612;SDS011;46443;59.792;17.626;2023-07-16T02:56:47;4.13;;;2.50;;
60612;SDS011;46443;59.792;17.626;2023-07-16T02:59:13;6.77;;;3.00;;
60612;SDS011;46443;59.792;17.626;2023-07-16T03:01:39;4.13;;;2.70;;
60612;SDS011;46443;59.792;17.626;2023-07-16T03:04:05;4.60;;;2.77;;
60612;SDS011;46443;59.792;17.626;2023-07-16T03:06:31;8.23;;;3.10;;
60612;SDS011;46443;59.792;17.626;2023-07-16T03:08:58;5.20;;;3.00;;
60612;SDS011;46443;59.792;17.626;2023-07-16T03:11:24;5.10;;;2.70;;
60612;SDS011;46443;59.792;17.626;2023-07-16T03:13:50;5.17;;;3.00;;
60612;SDS011;46443;59.792;17.626;2023-07-16T03:16:16;6.27;;;3.10;;
60612;SDS011;46443;59.792;17.626;2023-07-16T03:18:43;5.40;;;2.90;;
60612;SDS011;46443;59.792;17.626;2023-07-16T03:21:10;4.70;;;3.00;;
60612;SDS011;46443;59.792;17.626;2023-07-16T03:23:36;6.07;;;2.97;;
60612;SDS011;46443;59.792;17.626;2023-07-16T03:26:02;5.73;;;3.67;;
60612;SDS011;46443;59.792;17.626;2023-07-16T03:28:28;5.90;;;3.20;;
60612;SDS011;46443;59.792;17.626;2023-07-16T03:30:54;7.10;;;3.40;;
60612;SDS011;46443;59.792;17.626;2023-07-16T03:33:20;5.40;;;3.57;;
60612;SDS011;46443;59.792;17.626;2023-07-16T03:35:46;6.43;;;3.40;;
60612;SDS011;46443;59.792;17.626;2023-07-16T03:38:13;5.90;;;3.33;;
60612;SDS011;46443;59.792;17.626;2023-07-16T03:40:39;5.57;;;3.37;;
60612;SDS011;46443;59.792;17.626;2023-07-16T03:43:05;4.73;;;3.10;;
60612;SDS011;46443;59.792;17.626;2023-07-16T03:45:31;5.07;;;2.87;;
60612;SDS011;46443;59.792;17.626;2023-07-16T03:47:57;5.93;;;3.37;;
60612;SDS011;46443;59.792;17.626;2023-07-16T03:50:23;4.73;;;3.20;;
60612;SDS011;46443;59.792;17.626;2023-07-16T03:52:49;5.63;;;3.53;;
60612;SDS011;46443;59.792;17.626;2023-07-16T03:55:15;6.70;;;3.20;;
60612;SDS011;46443;59.792;17.626;2023-07-16T03:57:42;6.70;;;3.30;;
60612;SDS011;46443;59.792;17.626;2023-07-16T04:00:08;5.23;;;2.97;;
60612;SDS011;46443;59.792;17.626;2023-07-16T04:02:34;4.90;;;3.10;;
60612;SDS011;46443;59.792;17.626;2023-07-16T04:05:00;6.63;;;3.50;;
60612;SDS011;46443;59.792;17.626;2023-07-16T04:07:28;6.37;;;3.50;;
60612;SDS011;46443;59.792;17.626;2023-07-16T04:09:54;6.77;;;3.83;;
60612;SDS011;46443;59.792;17.626;2023-07-16T04:12:20;6.00;;;3.20;;
60612;SDS011;46443;59.792;17.626;2023-07-16T04:14:46;7.30;;;3.40;;
60612;SDS011;46443;59.792;17.626;2023-07-16T04:17:12;4.70;;;3.00;;
60612;SDS011;46443;59.792;17.626;2023-07-16T04:19:38;5.33;;;3.40;;
60612;SDS011;46443;59.792;17.626;2023-07-16T04:22:05;8.37;;;3.80;;
60612;SDS011;46443;59.792;17.626;2023-07-16T04:24:31;5.90;;;3.43;;
60612;SDS011;46443;59.792;17.626;2023-07-16T04:26:57;5.97;;;3.37;;
60612;SDS011;46443;59.792;17.626;2023-07-16T04:29:24;6.40;;;3.43;;
60612;SDS011;46443;59.792;17.626;2023-07-16T04:31:50;7.47;;;3.73;;
60612;SDS011;46443;59.792;17.626;2023-07-16T04:34:16;7.13;;;3.70;;
60612;SDS011;46443;59.792;17.626;2023-07-16T04:36:42;5.33;;;3.40;;
60612;SDS011;46443;59.792;17.626;2023-07-16T04:39:08;8.03;;;4.10;;
60612;SDS011;46443;59.792;17.626;2023-07-16T04:41:35;5.80;;;3.37;;
60612;SDS011;46443;59.792;17.626;2023-07-16T04:44:01;7.50;;;3.93;;
60612;SDS011;46443;59.792;17.626;2023-07-16T04:46:27;10.20;;;4.67;;
60612;SDS011;46443;59.792;17.626;2023-07-16T04:48:54;7.53;;;3.63;;
60612;SDS011;46443;59.792;17.626;2023-07-16T04:51:20;6.43;;;4.10;;
60612;SDS011;46443;59.792;17.626;2023-07-16T04:53:46;6.00;;;3.80;;
60612;SDS011;46443;59.792;17.626;2023-07-16T04:56:12;7.13;;;3.60;;
60612;SDS011;46443;59.792;17.626;2023-07-16T04:58:38;7.40;;;3.80;;
60612;SDS011;46443;59.792;17.626;2023-07-16T05:01:04;5.07;;;3.57;;
60612;SDS011;46443;59.792;17.626;2023-07-16T05:03:30;7.40;;;4.23;;
60612;SDS011;46443;59.792;17.626;2023-07-16T05:05:57;7.70;;;3.87;;
60612;SDS011;46443;59.792;17.626;2023-07-16T05:08:23;6.30;;;3.60;;
60612;SDS011;46443;59.792;17.626;2023-07-16T05:10:49;6.37;;;3.70;;
60612;SDS011;46443;59.792;17.626;2023-07-16T05:13:15;8.73;;;4.03;;
60612;SDS011;46443;59.792;17.626;2023-07-16T05:15:43;6.20;;;3.43;;
60612;SDS011;46443;59.792;17.626;2023-07-16T05:18:09;6.77;;;3.80;;
60612;SDS011;46443;59.792;17.626;2023-07-16T05:20:35;7.57;;;3.93;;
60612;SDS011;46443;59.792;17.626;2023-07-16T05:23:01;6.87;;;3.80;;
60612;SDS011;46443;59.792;17.626;2023-07-16T05:25:27;5.83;;;3.60;;
60612;SDS011;46443;59.792;17.626;2023-07-16T05:27:53;6.03;;;3.80;;
60612;SDS011;46443;59.792;17.626;2023-07-16T05:30:19;6.47;;;3.93;;
60612;SDS011;46443;59.792;17.626;2023-07-16T05:32:45;8.07;;;3.70;;
60612;SDS011;46443;59.792;17.626;2023-07-16T05:35:11;6.00;;;3.73;;
60612;SDS011;46443;59.792;17.626;2023-07-16T05:37:38;5.83;;;3.63;;
60612;SDS011;46443;59.792;17.626;2023-07-16T05:40:04;6.20;;;3.60;;
60612;SDS011;46443;59.792;17.626;2023-07-16T05:42:30;6.53;;;3.57;;
60612;SDS011;46443;59.792;17.626;2023-07-16T05:44:56;7.13;;;3.53;;
60612;SDS011;46443;59.792;17.626;2023-07-16T05:47:23;6.10;;;3.70;;
60612;SDS011;46443;59.792;17.626;2023-07-16T05:49:49;5.87;;;3.90;;
60612;SDS011;46443;59.792;17.626;2023-07-16T05:52:15;7.23;;;3.70;;
60612;SDS011;46443;59.792;17.626;2023-07-16T05:54:42;5.83;;;3.80;;
60612;SDS011;46443;59.792;17.626;2023-07-16T05:57:10;6.63;;;3.77;;
60612;SDS011;46443;59.792;17.626;2023-07-16T05:59:36;6.80;;;4.10;;
60612;SDS011;46443;59.792;17.626;2023-07-16T06:02:02;8.53;;;4.10;;
60612;SDS011;46443;59.792;17.626;2023-07-16T06:04:29;6.77;;;3.87;;
60612;SDS011;46443;59.792;17.626;2023-07-16T06:06:56;5.23;;;3.30;;
60612;SDS011;46443;59.792;17.626;2023-07-16T06:09:22;6.07;;;3.50;;
60612;SDS011;46443;59.792;17.626;2023-07-16T06:11:49;5.60;;;3.50;;
60612;SDS011;46443;59.792;17.626;2023-07-16T06:14:15;9.93;;;3.83;;
60612;SDS011;46443;59.792;17.626;2023-07-16T06:16:41;5.47;;;3.70;;
60612;SDS011;46443;59.792;17.626;2023-07-16T06:19:07;6.67;;;3.60;;
60612;SDS011;46443;59.792;17.626;2023-07-16T06:21:33;5.77;;;3.70;;
60612;SDS011;46443;59.792;17.626;2023-07-16T06:24:00;5.27;;;3.67;;
60612;SDS011;46443;59.792;17.626;2023-07-16T06:26:26;8.63;;;3.97;;
60612;SDS011;46443;59.792;17.626;2023-07-16T06:28:52;6.33;;;3.43;;
60612;SDS011;46443;59.792;17.626;2023-07-16T06:31:18;6.43;;;3.77;;
60612;SDS011;46443;59.792;17.626;2023-07-16T06:33:44;5.87;;;3.57;;
60612;SDS011;46443;59.792;17.626;2023-07-16T06:36:15;8.80;;;4.37;;
60612;SDS011;46443;59.792;17.626;2023-07-16T06:38:41;6.40;;;3.83;;
60612;SDS011;46443;59.792;17.626;2023-07-16T06:41:07;7.90;;;3.50;;
60612;SDS011;46443;59.792;17.626;2023-07-16T06:43:33;5.13;;;3.63;;
60612;SDS011;46443;59.792;17.626;2023-07-16T06:46:01;7.43;;;3.60;;
60612;SDS011;46443;59.792;17.626;2023-07-16T06:48:28;9.30;;;4.13;;
60612;SDS011;46443;59.792;17.626;2023-07-16T06:50:54;5.73;;;3.63;;
60612;SDS011;46443;59.792;17.626;2023-07-16T06:53:20;7.97;;;3.70;;
60612;SDS011;46443;59.792;17.626;2023-07-16T06:55:49;5.77;;;3.87;;
60612;SDS011;46443;59.792;17.626;2023-07-16T06:58:16;7.22;;;4.05;;
60612;SDS011;46443;59.792;17.626;2023-07-16T07:00:43;6.10;;;3.73;;
60612;SDS011;46443;59.792;17.626;2023-07-16T07:03:09;8.37;;;3.97;;
60612;SDS011;46443;59.792;17.626;2023-07-16T07:05:35;5.93;;;4.00;;
60612;SDS011;46443;59.792;17.626;2023-07-16T07:08:02;6.20;;;4.20;;
60612;SDS011;46443;59.792;17.626;2023-07-16T07:10:28;7.33;;;3.87;;
60612;SDS011;46443;59.792;17.626;2023-07-16T07:12:54;6.30;;;4.17;;
60612;SDS011;46443;59.792;17.626;2023-07-16T07:15:20;7.00;;;3.93;;
60612;SDS011;46443;59.792;17.626;2023-07-16T07:17:46;6.47;;;4.40;;
60612;SDS011;46443;59.792;17.626;2023-07-16T07:20:13;8.20;;;4.10;;
60612;SDS011;46443;59.792;17.626;2023-07-16T07:22:39;8.00;;;4.17;;
60612;SDS011;46443;59.792;17.626;2023-07-16T07:25:06;6.27;;;3.93;;
60612;SDS011;46443;59.792;17.626;2023-07-16T07:27:32;8.43;;;4.40;;
60612;SDS011;46443;59.792;17.626;2023-07-16T07:29:58;8.33;;;4.53;;
60612;SDS011;46443;59.792;17.626;2023-07-16T07:32:24;7.57;;;4.20;;
60612;SDS011;46443;59.792;17.626;2023-07-16T07:34:50;7.33;;;4.17;;
60612;SDS011;46443;59.792;17.626;2023-07-16T07:37:16;8.23;;;4.20;;
60612;SDS011;46443;59.792;17.626;2023-07-16T07:39:43;7.30;;;4.50;;
60612;SDS011;46443;59.792;17.626;2023-07-16T07:42:12;7.90;;;4.50;;
60612;SDS011;46443;59.792;17.626;2023-07-16T07:44:38;8.17;;;4.80;;
60612;SDS011;46443;59.792;17.626;2023-07-16T07:47:05;8.77;;;4.60;;
60612;SDS011;46443;59.792;17.626;2023-07-16T07:49:33;8.50;;;4.20;;
60612;SDS011;46443;59.792;17.626;2023-07-16T07:51:59;7.83;;;4.27;;
60612;SDS011;46443;59.792;17.626;2023-07-16T07:54:25;7.00;;;4.60;;
60612;SDS011;46443;59.792;17.626;2023-07-16T07:56:52;8.83;;;4.50;;
60612;SDS011;46443;59.792;17.626;2023-07-16T07:59:18;6.50;;;4.33;;
60612;SDS011;46443;59.792;17.626;2023-07-16T08:01:44;5.77;;;4.13;;
60612;SDS011;46443;59.792;17.626;2023-07-16T08:04:10;7.83;;;4.67;;
60612;SDS011;46443;59.792;17.626;2023-07-16T08:06:36;6.20;;;4.13;;
60612;SDS011;46443;59.792;17.626;2023-07-16T08:09:02;7.10;;;4.40;;
60612;SDS011;46443;59.792;17.626;2023-07-16T08:11:28;8.37;;;4.53;;
60612;SDS011;46443;59.792;17.626;2023-07-16T08:13:54;11.03;;;4.50;;
60612;SDS011;46443;59.792;17.626;2023-07-16T08:16:20;6.50;;;4.07;;
60612;SDS011;46443;59.792;17.626;2023-07-16T08:18:46;7.67;;;4.50;;
60612;SDS011;46443;59.792;17.626;2023-07-16T08:21:12;7.03;;;4.37;;
60612;SDS011;46443;59.792;17.626;2023-07-16T08:23:44;6.60;;;4.20;;
60612;SDS011;46443;59.792;17.626;2023-07-16T08:26:10;6.70;;;4.80;;
60612;SDS011;46443;59.792;17.626;2023-07-16T08:28:37;7.87;;;4.60;;
60612;SDS011;46443;59.792;17.626;2023-07-16T08:31:03;7.63;;;4.50;;
60612;SDS011;46443;59.792;17.626;2023-07-16T08:33:31;8.47;;;4.33;;
60612;SDS011;46443;59.792;17.626;2023-07-16T08:35:57;7.80;;;4.17;;
60612;SDS011;46443;59.792;17.626;2023-07-16T08:38:23;7.43;;;4.43;;
60612;SDS011;46443;59.792;17.626;2023-07-16T08:40:49;7.67;;;4.60;;
60612;SDS011;46443;59.792;17.626;2023-07-16T08:43:15;6.90;;;4.67;;
60612;SDS011;46443;59.792;17.626;2023-07-16T08:45:42;8.33;;;4.70;;
60612;SDS011;46443;59.792;17.626;2023-07-16T08:48:11;9.13;;;4.60;;
60612;SDS011;46443;59.792;17.626;2023-07-16T08:50:37;8.33;;;4.57;;
60612;SDS011;46443;59.792;17.626;2023-07-16T08:53:06;10.23;;;4.93;;
60612;SDS011;46443;59.792;17.626;2023-07-16T08:55:33;6.65;;;4.68;;
60612;SDS011;46443;59.792;17.626;2023-07-16T08:58:03;7.50;;;5.00;;
60612;SDS011;46443;59.792;17.626;2023-07-16T09:00:30;7.43;;;4.53;;
60612;SDS011;46443;59.792;17.626;2023-07-16T09:02:56;8.03;;;4.57;;
60612;SDS011;46443;59.792;17.626;2023-07-16T09:05:22;10.67;;;4.57;;
60612;SDS011;46443;59.792;17.626;2023-07-16T09:07:49;11.37;;;4.87;;
60612;SDS011;46443;59.792;17.626;2023-07-16T09:10:15;7.20;;;4.87;;
60612;SDS011;46443;59.792;17.626;2023-07-16T09:12:44;6.90;;;4.40;;
60612;SDS011;46443;59.792;17.626;2023-07-16T09:15:11;7.82;;;5.00;;
60612;SDS011;46443;59.792;17.626;2023-07-16T09:17:37;9.23;;;5.47;;
60612;SDS011;46443;59.792;17.626;2023-07-16T09:20:04;11.50;;;5.70;;
60612;SDS011;46443;59.792;17.626;2023-07-16T09:22:33;8.43;;;5.40;;
60612;SDS011;46443;59.792;17.626;2023-07-16T09:25:00;10.33;;;5.17;;
60612;SDS011;46443;59.792;17.626;2023-07-16T09:27:30;9.73;;;5.03;;
60612;SDS011;46443;59.792;17.626;2023-07-16T09:29:56;7.13;;;5.20;;
60612;SDS011;46443;59.792;17.626;2023-07-16T09:32:36;10.33;;;5.77;;
60612;SDS011;46443;59.792;17.626;2023-07-16T09:35:22;10.27;;;6.13;;
60612;SDS011;46443;59.792;17.626;2023-07-16T09:37:48;10.57;;;6.17;;
60612;SDS011;46443;59.792;17.626;2023-07-16T09:40:16;12.97;;;6.47;;
60612;SDS011;46443;59.792;17.626;2023-07-16T09:42:42;10.23;;;6.63;;
60612;SDS011;46443;59.792;17.626;2023-07-16T09:45:16;11.97;;;7.57;;
60612;SDS011;46443;59.792;17.626;2023-07-16T09:47:42;14.17;;;8.13;;
60612;SDS011;46443;59.792;17.626;2023-07-16T09:50:09;14.20;;;8.03;;
60612;SDS011;46443;59.792;17.626;2023-07-16T09:52:36;16.47;;;8.33;;
60612;SDS011;46443;59.792;17.626;2023-07-16T09:55:03;14.20;;;8.23;;
60612;SDS011;46443;59.792;17.626;2023-07-16T09:57:33;13.63;;;8.97;;
60612;SDS011;46443;59.792;17.626;2023-07-16T10:00:01;14.60;;;8.43;;
60612;SDS011;46443;59.792;17.626;2023-07-16T10:02:30;12.40;;;8.02;;
60612;SDS011;46443;59.792;17.626;2023-07-16T10:04:57;10.57;;;6.80;;
60612;SDS011;46443;59.792;17.626;2023-07-16T10:07:24;11.73;;;6.63;;
60612;SDS011;46443;59.792;17.626;2023-07-16T10:12:18;9.50;;;6.80;;
60612;SDS011;46443;59.792;17.626;2023-07-16T10:14:45;9.53;;;6.43;;
60612;SDS011;46443;59.792;17.626;2023-07-16T10:17:12;9.30;;;6.33;;
60612;SDS011;46443;59.792;17.626;2023-07-16T10:20:12;10.00;;;5.80;;
60612;SDS011;46443;59.792;17.626;2023-07-16T10:25:07;7.27;;;4.27;;
60612;SDS011;46443;59.792;17.626;2023-07-16T10:27:34;6.33;;;3.97;;
60612;SDS011;46443;59.792;17.626;2023-07-16T10:30:01;10.77;;;4.70;;
60612;SDS011;46443;59.792;17.626;2023-07-16T10:32:28;6.93;;;4.50;;
60612;SDS011;46443;59.792;17.626;2023-07-16T10:34:55;8.17;;;4.83;;
60612;SDS011;46443;59.792;17.626;2023-07-16T10:37:22;6.20;;;4.30;;
60612;SDS011;46443;59.792;17.626;2023-07-16T10:39:49;6.10;;;3.90;;
60612;SDS011;46443;59.792;17.626;2023-07-16T10:42:15;7.17;;;3.60;;
60612;SDS011;46443;59.792;17.626;2023-07-16T10:44:41;5.80;;;3.67;;
60612;SDS011;46443;59.792;17.626;2023-07-16T10:47:08;4.20;;;2.93;;
60612;SDS011;46443;59.792;17.626;2023-07-16T10:49:34;7.07;;;3.23;;
60612;SDS011;46443;59.792;17.626;2023-07-16T10:52:01;5.83;;;3.40;;
60612;SDS011;46443;59.792;17.626;2023-07-16T10:54:27;4.60;;;2.90;;
60612;SDS011;46443;59.792;17.626;2023-07-16T10:56:53;5.30;;;3.20;;
60612;SDS011;46443;59.792;17.626;2023-07-16T10:59:19;5.87;;;3.60;;
60612;SDS011;46443;59.792;17.626;2023-07-16T11:01:45;6.33;;;3.57;;
60612;SDS011;46443;59.792;17.626;2023-07-16T11:04:11;6.00;;;3.40;;
60612;SDS011;46443;59.792;17.626;2023-07-16T11:06:37;7.17;;;3.40;;
60612;SDS011;46443;59.792;17.626;2023-07-16T11:09:10;6.10;;;3.03;;
60612;SDS011;46443;59.792;17.626;2023-07-16T11:11:36;5.63;;;3.37;;
60612;SDS011;46443;59.792;17.626;2023-07-16T11:14:03;5.63;;;3.03;;
60612;SDS011;46443;59.792;17.626;2023-07-16T11:16:33;5.20;;;3.10;;
60612;SDS011;46443;59.792;17.626;2023-07-16T11:19:00;4.83;;;3.00;;
60612;SDS011;46443;59.792;17.626;2023-07-16T11:21:27;5.43;;;3.33;;
60612;SDS011;46443;59.792;17.626;2023-07-16T11:23:53;4.90;;;3.10;;
60612;SDS011;46443;59.792;17.626;2023-07-16T11:26:19;4.90;;;2.80;;
60612;SDS011;46443;59.792;17.626;2023-07-16T11:28:45;4.67;;;2.80;;
60612;SDS011;46443;59.792;17.626;2023-07-16T11:31:13;3.87;;;2.63;;
60612;SDS011;46443;59.792;17.626;2023-07-16T11:33:41;4.40;;;2.93;;
60612;SDS011;46443;59.792;17.626;2023-07-16T11:36:08;4.50;;;2.70;;
60612;SDS011;46443;59.792;17.626;2023-07-16T11:38:37;6.13;;;3.37;;
60612;SDS011;46443;59.792;17.626;2023-07-16T11:41:03;4.50;;;3.00;;
60612;SDS011;46443;59.792;17.626;2023-07-16T11:43:40;5.70;;;2.80;;
60612;SDS011;46443;59.792;17.626;2023-07-16T11:46:15;5.03;;;3.30;;
60612;SDS011;46443;59.792;17.626;2023-07-16T11:48:41;4.87;;;3.07;;
60612;SDS011;46443;59.792;17.626;2023-07-16T11:51:07;6.13;;;3.43;;
60612;SDS011;46443;59.792;17.626;2023-07-16T11:53:33;6.23;;;2.83;;
60612;SDS011;46443;59.792;17.626;2023-07-16T11:56:00;5.60;;;2.70;;
60612;SDS011;46443;59.792;17.626;2023-07-16T11:58:26;5.00;;;2.50;;
60612;SDS011;46443;59.792;17.626;2023-07-16T12:00:52;5.43;;;2.70;;
60612;SDS011;46443;59.792;17.626;2023-07-16T12:03:18;5.00;;;2.60;;
60612;SDS011;46443;59.792;17.626;2023-07-16T12:05:44;5.27;;;3.30;;
60612;SDS011;46443;59.792;17.626;2023-07-16T12:08:10;6.20;;;2.93;;
60612;SDS011;46443;59.792;17.626;2023-07-16T12:10:39;5.80;;;3.10;;
60612;SDS011;46443;59.792;17.626;2023-07-16T12:13:05;5.17;;;2.97;;
60612;SDS011;46443;59.792;17.626;2023-07-16T12:15:31;5.57;;;3.20;;
60612;SDS011;46443;59.792;17.626;2023-07-16T12:17:59;5.87;;;3.17;;
60612;SDS011;46443;59.792;17.626;2023-07-16T12:20:25;4.90;;;2.80;;
60612;SDS011;46443;59.792;17.626;2023-07-16T12:22:51;5.17;;;2.80;;
60612;SDS011;46443;59.792;17.626;2023-07-16T12:25:17;4.28;;;2.85;;
60612;SDS011;46443;59.792;17.626;2023-07-16T12:27:44;3.38;;;2.40;;
60612;SDS011;46443;59.792;17.626;2023-07-16T12:30:10;4.38;;;2.78;;
60612;SDS011;46443;59.792;17.626;2023-07-16T12:32:36;4.90;;;2.47;;
60612;SDS011;46443;59.792;17.626;2023-07-16T12:35:02;3.85;;;2.30;;
60612;SDS011;46443;59.792;17.626;2023-07-16T12:37:29;4.95;;;2.50;;
60612;SDS011;46443;59.792;17.626;2023-07-16T12:39:55;4.00;;;2.38;;
60612;SDS011;46443;59.792;17.626;2023-07-16T12:42:21;4.35;;;2.38;;
60612;SDS011;46443;59.792;17.626;2023-07-16T12:44:47;3.60;;;2.40;;
60612;SDS011;46443;59.792;17.626;2023-07-16T12:47:15;4.15;;;2.70;;
60612;SDS011;46443;59.792;17.626;2023-07-16T12:49:41;3.15;;;2.22;;
60612;SDS011;46443;59.792;17.626;2023-07-16T12:52:07;3.78;;;2.30;;
60612;SDS011;46443;59.792;17.626;2023-07-16T12:54:33;3.33;;;2.20;;
60612;SDS011;46443;59.792;17.626;2023-07-16T12:56:59;4.93;;;2.83;;
60612;SDS011;46443;59.792;17.626;2023-07-16T12:59:25;5.53;;;2.70;;
60612;SDS011;46443;59.792;17.626;2023-07-16T13:01:51;4.05;;;2.67;;
60612;SDS011;46443;59.792;17.626;2023-07-16T13:04:17;4.00;;;2.50;;
60612;SDS011;46443;59.792;17.626;2023-07-16T13:06:43;3.40;;;2.35;;
60612;SDS011;46443;59.792;17.626;2023-07-16T13:09:12;4.13;;;2.80;;
60612;SDS011;46443;59.792;17.626;2023-07-16T13:11:39;4.47;;;2.55;;
60612;SDS011;46443;59.792;17.626;2023-07-16T13:14:05;3.03;;;2.25;;
60612;SDS011;46443;59.792;17.626;2023-07-16T13:16:31;4.22;;;2.63;;
60612;SDS011;46443;59.792;17.626;2023-07-16T13:18:57;4.43;;;2.65;;
60612;SDS011;46443;59.792;17.626;2023-07-16T13:21:23;4.68;;;2.95;;
60612;SDS011;46443;59.792;17.626;2023-07-16T13:23:49;4.05;;;2.60;;
60612;SDS011;46443;59.792;17.626;2023-07-16T13:26:15;4.63;;;2.60;;
60612;SDS011;46443;59.792;17.626;2023-07-16T13:28:41;4.32;;;2.80;;
60612;SDS011;46443;59.792;17.626;2023-07-16T13:31:07;5.38;;;3.00;;
60612;SDS011;46443;59.792;17.626;2023-07-16T13:33:33;4.22;;;2.78;;
60612;SDS011;46443;59.792;17.626;2023-07-16T13:36:01;3.97;;;3.00;;
60612;SDS011;46443;59.792;17.626;2023-07-16T13:38:29;4.15;;;3.00;;
60612;SDS011;46443;59.792;17.626;2023-07-16T13:40:55;4.60;;;2.92;;
60612;SDS011;46443;59.792;17.626;2023-07-16T13:43:21;4.88;;;2.83;;
60612;SDS011;46443;59.792;17.626;2023-07-16T13:45:47;5.57;;;3.10;;
60612;SDS011;46443;59.792;17.626;2023-07-16T13:48:14;6.03;;;3.00;;
60612;SDS011;46443;59.792;17.626;2023-07-16T13:50:40;5.53;;;3.10;;
60612;SDS011;46443;59.792;17.626;2023-07-16T13:53:06;4.63;;;2.75;;
60612;SDS011;46443;59.792;17.626;2023-07-16T13:55:32;5.50;;;3.03;;
60612;SDS011;46443;59.792;17.626;2023-07-16T13:57:58;6.95;;;2.97;;
60612;SDS011;46443;59.792;17.626;2023-07-16T14:00:24;4.35;;;3.00;;
60612;SDS011;46443;59.792;17.626;2023-07-16T14:02:50;4.88;;;3.10;;
60612;SDS011;46443;59.792;17.626;2023-07-16T14:05:16;3.95;;;2.67;;
60612;SDS011;46443;59.792;17.626;2023-07-16T14:07:44;4.30;;;2.90;;
60612;SDS011;46443;59.792;17.626;2023-07-16T14:10:10;4.25;;;3.08;;
60612;SDS011;46443;59.792;17.626;2023-07-16T14:12:36;4.22;;;2.80;;
60612;SDS011;46443;59.792;17.626;2023-07-16T14:15:02;4.38;;;2.97;;
60612;SDS011;46443;59.792;17.626;2023-07-16T14:17:28;6.45;;;3.50;;
60612;SDS011;46443;59.792;17.626;2023-07-16T14:19:54;5.32;;;3.20;;
60612;SDS011;46443;59.792;17.626;2023-07-16T14:22:21;6.22;;;3.22;;
60612;SDS011;46443;59.792;17.626;2023-07-16T14:24:51;5.32;;;3.00;;
60612;SDS011;46443;59.792;17.626;2023-07-16T14:27:17;3.60;;;2.90;;
60612;SDS011;46443;59.792;17.626;2023-07-16T14:29:45;4.38;;;2.90;;
60612;SDS011;46443;59.792;17.626;2023-07-16T14:32:11;4.82;;;2.90;;
60612;SDS011;46443;59.792;17.626;2023-07-16T14:34:38;4.40;;;2.78;;
60612;SDS011;46443;59.792;17.626;2023-07-16T14:37:04;6.20;;;3.53;;
60612;SDS011;46443;59.792;17.626;2023-07-16T14:39:30;4.63;;;3.08;;
60612;SDS011;46443;59.792;17.626;2023-07-16T14:41:56;5.60;;;2.80;;